Página principal
METAR-TAF:

METAR-TAF

Aeroportos :

Cambridge, Inglaterra

latitude: 52-12N, longitude: 000-11E, altura: 15 m

Observação actual do tempo

O boletim foi feito há 29 minutos, às 16:50 UTC
Vento 11 kt de oeste
Temperatura 21°C
Humidade 64%
Pressão 1012 hPa
Visibilidade 10 km ou mais
Poucas nuvensa uma altura de 3200 ft
Nuvens dispersasa uma altura de 3800 ft

METAR: EGSC 231650Z 27011KT 9999 FEW032 SCT038 21/14 Q1012

Hora: 18:19 (17:19 UTC)

Previsão

O boletim foi feito há 3 horas e 22 minutos, às 13:57 UTC
Previsão válida de 23 às 15 UTC a 23 às 19 UTC
Vento 10 kt de oeste
Visibilidade 10 km ou mais
Nuvens dispersasa uma altura de 4000 ft

TAF: EGSC 231357Z 2315/2319 26010KT 9999 SCT040

Observações e previsões do tempo de mais de 4000 aeroportos (mensagens METAR e TAF).

As estações disponíveis são os pontos amarelos e vermelhos sobre o mapa.

Mova o rato sobre o mapa para ver o nome da estação.

Depois clique no ponto para visualizar as observações e previsões meteorológicas.

Para alterar o mapa : clique nos botões verdes com uma cruz preta para aumentar o zoom; no botão verde com uma pitada de zoom; ou nas setas verdes para mapas adjacentes.


METAR-TAF: